Time;durP1;ratioP1;P1;durP2;ratioP2;P2;SDS_P1;SDS_P2;PMS_P1;PMS_P2;Temp;Humidity;BMP_temperature;BMP_pressure;BME280_temperature;BME280_humidity;BME280_pressure;Samples;Min_cycle;Max_cycle;Signal;HPM_P1;HPM_P2
2024/03/20 00:02:24;;;;;;;9.95;4.63;;;10.60;99.90;;;;;;4995520;28;20030;-84
2024/03/20 00:04:51;;;;;;;8.30;5.25;;;10.60;99.90;;;;;;4995824;28;20109;-84
2024/03/20 00:07:17;;;;;;;13.07;5.00;;;10.60;99.90;;;;;;4995073;28;20081;-84
2024/03/20 00:09:42;;;;;;;11.52;5.47;;;10.60;99.90;;;;;;4994385;28;20034;-83
2024/03/20 00:12:08;;;;;;;11.18;5.57;;;10.50;99.90;;;;;;4994762;28;20053;-84
2024/03/20 00:14:34;;;;;;;9.68;4.97;;;10.50;99.90;;;;;;4994541;28;20033;-83
2024/03/20 00:17:01;;;;;;;10.55;5.57;;;10.50;99.90;;;;;;4994110;28;20026;-84
2024/03/20 00:19:27;;;;;;;10.32;5.43;;;10.60;99.90;;;;;;4994378;28;20037;-84
2024/03/20 00:21:53;;;;;;;8.68;4.53;;;10.50;99.90;;;;;;4994341;28;20030;-84
2024/03/20 00:24:19;;;;;;;11.25;5.22;;;10.50;99.90;;;;;;4994414;28;20030;-84
2024/03/20 00:26:45;;;;;;;10.38;5.80;;;10.40;99.90;;;;;;4994139;28;20038;-84
2024/03/20 00:29:11;;;;;;;10.23;5.72;;;10.40;99.90;;;;;;4994414;28;20038;-81
2024/03/20 00:31:37;;;;;;;12.90;5.57;;;10.50;99.90;;;;;;4995506;28;20085;-81
2024/03/20 00:34:03;;;;;;;9.52;4.80;;;10.40;99.90;;;;;;4993777;28;20069;-81
2024/03/20 00:36:30;;;;;;;9.25;4.85;;;10.40;99.90;;;;;;4995635;28;20065;-81
2024/03/20 00:38:56;;;;;;;11.30;5.65;;;10.40;99.90;;;;;;4993618;28;20034;-81
2024/03/20 00:41:22;;;;;;;16.08;8.27;;;10.50;99.90;;;;;;4994454;28;20361;-81
2024/03/20 00:43:47;;;;;;;17.52;8.38;;;10.60;99.90;;;;;;4993759;28;20468;-80
2024/03/20 00:46:13;;;;;;;14.40;7.43;;;10.60;99.90;;;;;;4994272;28;20033;-83
2024/03/20 00:48:38;;;;;;;17.33;8.35;;;10.70;99.90;;;;;;4994168;28;20451;-82
2024/03/20 00:51:05;;;;;;;18.30;8.18;;;10.60;99.90;;;;;;4994437;28;20034;-82
2024/03/20 00:53:30;;;;;;;17.60;8.05;;;10.60;99.90;;;;;;4993697;28;20100;-82
2024/03/20 00:55:56;;;;;;;14.32;7.38;;;10.60;99.90;;;;;;4993328;28;20031;-81
2024/03/20 00:58:21;;;;;;;16.33;7.03;;;10.60;99.90;;;;;;4994706;28;20111;-84
2024/03/20 01:00:47;;;;;;;15.15;7.22;;;10.60;99.90;;;;;;4993431;28;20030;-84
2024/03/20 01:03:13;;;;;;;20.98;6.90;;;10.60;99.90;;;;;;4993718;28;20472;-83
2024/03/20 01:05:39;;;;;;;15.23;7.75;;;10.60;99.90;;;;;;4993814;28;20026;-85
2024/03/20 01:08:05;;;;;;;13.10;6.63;;;10.60;99.90;;;;;;4993419;28;20041;-85
2024/03/20 01:10:31;;;;;;;15.20;7.38;;;10.60;99.90;;;;;;4993926;28;20030;-84
2024/03/20 01:12:56;;;;;;;16.95;7.85;;;10.50;99.90;;;;;;4993358;28;20034;-83
2024/03/20 01:15:22;;;;;;;17.25;7.82;;;10.50;99.90;;;;;;4994644;28;20030;-82
2024/03/20 01:17:47;;;;;;;15.30;8.18;;;10.40;99.90;;;;;;4994109;28;20388;-82
2024/03/20 01:20:13;;;;;;;15.45;7.63;;;10.50;99.90;;;;;;4993547;28;20121;-81
2024/03/20 01:22:39;;;;;;;15.63;7.47;;;10.40;99.90;;;;;;4994373;28;20026;-82
2024/03/20 01:25:05;;;;;;;15.32;8.02;;;10.50;99.90;;;;;;4992974;28;20026;-83
2024/03/20 01:27:31;;;;;;;16.98;7.80;;;10.40;99.90;;;;;;4993603;28;20030;-83
2024/03/20 01:29:57;;;;;;;15.65;6.85;;;10.50;99.90;;;;;;4994234;28;20094;-82
2024/03/20 01:32:22;;;;;;;19.48;7.65;;;10.50;99.90;;;;;;4993242;28;20034;-83
2024/03/20 01:34:49;;;;;;;17.02;7.70;;;10.50;99.90;;;;;;4992947;28;20050;-82
2024/03/20 01:37:14;;;;;;;18.25;7.82;;;10.50;99.90;;;;;;4993558;28;20027;-83
2024/03/20 01:39:41;;;;;;;19.15;7.80;;;10.50;99.90;;;;;;4994321;28;20494;-83
2024/03/20 01:42:07;;;;;;;16.63;8.65;;;10.40;99.90;;;;;;4992777;28;20491;-83
2024/03/20 01:44:32;;;;;;;19.83;8.90;;;10.50;99.90;;;;;;4994240;28;20068;-83
2024/03/20 01:46:58;;;;;;;23.65;9.48;;;10.40;99.90;;;;;;4992975;28;20026;-83
2024/03/20 01:49:25;;;;;;;22.10;10.68;;;10.40;99.90;;;;;;4993649;28;20030;-83
2024/03/20 01:51:51;;;;;;;25.40;10.68;;;10.40;99.90;;;;;;4992935;28;20031;-82
2024/03/20 01:54:18;;;;;;;23.73;10.15;;;10.40;99.90;;;;;;4993160;28;20490;-84
2024/03/20 01:56:44;;;;;;;29.70;12.18;;;10.30;99.90;;;;;;4994562;28;20018;-83
2024/03/20 01:59:10;;;;;;;23.00;11.15;;;10.40;99.90;;;;;;4992772;28;20396;-81
2024/03/20 02:01:36;;;;;;;25.65;12.27;;;10.40;99.90;;;;;;4993520;28;20036;-81
2024/03/20 02:04:04;;;;;;;24.73;11.70;;;10.40;99.90;;;;;;4992412;28;20046;-81
2024/03/20 02:06:30;;;;;;;24.48;10.32;;;10.30;99.90;;;;;;4994201;28;20053;-81
2024/03/20 02:08:56;;;;;;;19.95;10.38;;;10.30;99.90;;;;;;4992482;28;20468;-81
2024/03/20 02:11:25;;;;;;;20.25;9.50;;;10.30;99.90;;;;;;4993263;28;20053;-83
2024/03/20 02:13:53;;;;;;;21.67;9.38;;;10.20;99.90;;;;;;4996563;28;20077;-82
2024/03/20 02:16:20;;;;;;;17.33;9.43;;;10.20;99.90;;;;;;4998190;28;20375;-82
2024/03/20 02:18:47;;;;;;;16.45;7.97;;;10.20;99.90;;;;;;4997235;28;20036;-82
2024/03/20 02:21:20;;;;;;;17.35;8.50;;;10.10;99.90;;;;;;4996327;28;20031;-82
2024/03/20 02:23:47;;;;;;;19.77;9.05;;;10.10;99.90;;;;;;4997730;28;20027;-83
2024/03/20 02:26:13;;;;;;;16.25;8.73;;;10.10;99.90;;;;;;4996215;28;20027;-82
2024/03/20 02:28:40;;;;;;;14.93;8.65;;;10.20;99.90;;;;;;4997467;28;20030;-82
2024/03/20 02:31:09;;;;;;;20.75;9.30;;;10.20;99.90;;;;;;4996748;28;20030;-83
2024/03/20 02:33:36;;;;;;;17.23;8.07;;;10.20;99.90;;;;;;4996651;28;20034;-82
2024/03/20 02:36:02;;;;;;;17.92;8.27;;;10.10;99.90;;;;;;4995656;28;20057;-83
2024/03/20 02:38:33;;;;;;;17.55;8.93;;;10.10;99.90;;;;;;4996241;28;20030;-82
2024/03/20 02:40:58;;;;;;;17.88;8.48;;;10.10;99.90;;;;;;4995859;28;20122;-82
2024/03/20 02:43:26;;;;;;;20.63;8.88;;;10.10;99.90;;;;;;4996649;28;20121;-82
2024/03/20 02:45:51;;;;;;;20.48;9.90;;;10.10;99.90;;;;;;4995704;28;20026;-82
2024/03/20 02:48:17;;;;;;;18.60;9.85;;;10.10;99.90;;;;;;4996548;28;20037;-82
2024/03/20 02:50:43;;;;;;;20.50;9.25;;;10.00;99.90;;;;;;4996257;28;20057;-82
2024/03/20 02:53:09;;;;;;;21.98;10.07;;;10.10;99.90;;;;;;4997092;28;20065;-82
2024/03/20 02:55:36;;;;;;;19.73;9.38;;;10.00;99.90;;;;;;4997147;28;20098;-87
2024/03/20 02:58:02;;;;;;;18.00;8.73;;;10.10;99.90;;;;;;4995688;28;20042;-87
2024/03/20 03:00:30;;;;;;;19.00;8.98;;;10.00;99.90;;;;;;4996322;28;20121;-86
2024/03/20 03:02:57;;;;;;;17.08;8.93;;;10.00;99.90;;;;;;4996864;28;20387;-82
2024/03/20 03:05:24;;;;;;;18.52;9.02;;;10.00;99.90;;;;;;4997537;28;20023;-82
2024/03/20 03:07:50;;;;;;;16.02;8.65;;;10.00;99.90;;;;;;4997151;28;20031;-86
2024/03/20 03:10:15;;;;;;;16.90;8.15;;;10.00;99.90;;;;;;4995683;28;20030;-83
2024/03/20 03:12:42;;;;;;;18.48;8.20;;;9.90;99.90;;;;;;4996386;28;20026;-84
2024/03/20 03:15:08;;;;;;;13.70;8.10;;;9.90;99.90;;;;;;4995225;28;20030;-84
2024/03/20 03:17:34;;;;;;;16.85;8.60;;;9.90;99.90;;;;;;4997036;28;20061;-83
2024/03/20 03:19:59;;;;;;;15.38;8.27;;;9.90;99.90;;;;;;4995189;28;20116;-84
2024/03/20 03:22:25;;;;;;;17.48;7.95;;;9.80;99.90;;;;;;4996770;28;20029;-84
2024/03/20 03:24:51;;;;;;;17.25;8.35;;;9.80;99.90;;;;;;4994636;28;20030;-83
2024/03/20 03:27:16;;;;;;;14.40;7.55;;;9.80;99.90;;;;;;4996533;28;20033;-82
2024/03/20 03:29:42;;;;;;;17.63;8.13;;;9.80;99.90;;;;;;4996696;28;20030;-83
2024/03/20 03:32:08;;;;;;;16.55;7.82;;;9.70;99.90;;;;;;4996474;28;20096;-80
2024/03/20 03:34:33;;;;;;;15.43;7.72;;;9.60;99.90;;;;;;4995096;28;20049;-82
2024/03/20 03:36:59;;;;;;;13.23;7.03;;;9.50;99.90;;;;;;4995215;28;20030;-82
2024/03/20 03:39:24;;;;;;;13.57;6.82;;;9.50;99.90;;;;;;4995582;28;20126;-83
2024/03/20 03:41:50;;;;;;;13.80;7.45;;;9.50;99.90;;;;;;4995244;28;20085;-82
2024/03/20 03:44:16;;;;;;;13.07;7.63;;;9.40;99.90;;;;;;4994870;28;20046;-83
2024/03/20 03:46:42;;;;;;;12.32;6.80;;;9.20;99.90;;;;;;4996444;28;20031;-83
2024/03/20 03:49:08;;;;;;;14.07;6.85;;;9.20;99.90;;;;;;4994937;28;20030;-83
2024/03/20 03:51:34;;;;;;;13.30;7.13;;;9.30;99.90;;;;;;4996796;28;20027;-83
2024/03/20 03:54:00;;;;;;;14.63;6.47;;;9.30;99.90;;;;;;4994663;28;20026;-83
2024/03/20 03:56:26;;;;;;;11.45;6.53;;;9.30;99.90;;;;;;4995295;28;20550;-83
2024/03/20 03:58:51;;;;;;;10.43;6.10;;;9.20;99.90;;;;;;4994818;28;20030;-83
2024/03/20 04:01:17;;;;;;;10.85;6.00;;;9.20;99.90;;;;;;4994826;28;20034;-83
2024/03/20 04:03:43;;;;;;;12.10;6.30;;;9.00;99.90;;;;;;4994666;28;20022;-83
2024/03/20 04:06:08;;;;;;;10.75;6.25;;;8.90;99.90;;;;;;4994486;28;20041;-83
2024/03/20 04:08:34;;;;;;;15.13;6.28;;;8.90;99.90;;;;;;4995846;28;20443;-82
2024/03/20 04:10:59;;;;;;;9.88;5.63;;;8.80;99.90;;;;;;4995948;28;20117;-83
2024/03/20 04:13:25;;;;;;;13.73;6.55;;;8.80;99.90;;;;;;4996106;28;20459;-83
2024/03/20 04:15:52;;;;;;;11.00;5.97;;;8.80;99.90;;;;;;4995856;28;20029;-83
2024/03/20 04:18:19;;;;;;;12.02;5.40;;;8.80;99.90;;;;;;4994284;28;20058;-83
2024/03/20 04:20:44;;;;;;;11.35;6.30;;;8.80;99.90;;;;;;4995979;28;20113;-83
2024/03/20 04:23:10;;;;;;;8.43;5.65;;;8.80;99.90;;;;;;4994051;28;20113;-83
2024/03/20 04:25:35;;;;;;;13.23;6.25;;;8.80;99.90;;;;;;4994316;28;20534;-81
2024/03/20 04:28:01;;;;;;;13.18;5.90;;;8.80;99.90;;;;;;4994928;28;20037;-81
2024/03/20 04:30:27;;;;;;;11.40;5.72;;;8.70;99.90;;;;;;4994534;28;20026;-82
2024/03/20 04:32:53;;;;;;;10.60;5.97;;;8.80;99.90;;;;;;4995278;28;20030;-82
2024/03/20 04:35:18;;;;;;;12.10;5.68;;;8.80;99.90;;;;;;4994673;28;20061;-82
2024/03/20 04:37:44;;;;;;;11.10;5.97;;;8.80;99.90;;;;;;4994391;28;20112;-81
2024/03/20 04:40:10;;;;;;;9.65;5.85;;;8.60;99.90;;;;;;4994846;28;20479;-81
2024/03/20 04:42:36;;;;;;;12.75;5.80;;;8.50;99.90;;;;;;4994423;28;20096;-83
2024/03/20 04:45:01;;;;;;;10.90;5.50;;;8.50;99.90;;;;;;4993967;28;20460;-83
2024/03/20 04:47:27;;;;;;;8.30;5.20;;;8.60;99.90;;;;;;4994282;28;20088;-83
2024/03/20 04:49:53;;;;;;;8.90;5.25;;;8.60;99.90;;;;;;4994270;28;20076;-84
2024/03/20 04:52:18;;;;;;;10.77;5.28;;;8.60;99.90;;;;;;4993734;28;20035;-83
2024/03/20 04:54:44;;;;;;;9.60;5.72;;;8.60;99.90;;;;;;4993905;28;20053;-83
2024/03/20 04:57:10;;;;;;;10.38;5.28;;;8.60;99.90;;;;;;4994888;28;20066;-83
2024/03/20 04:59:35;;;;;;;10.20;4.93;;;8.60;99.90;;;;;;4994228;28;20383;-83
2024/03/20 05:02:02;;;;;;;13.68;6.10;;;8.60;99.90;;;;;;4993294;28;20038;-84
2024/03/20 05:04:28;;;;;;;9.63;5.40;;;8.60;99.90;;;;;;4994778;28;20031;-84
2024/03/20 05:06:53;;;;;;;10.68;5.82;;;8.60;99.90;;;;;;4993739;28;20042;-82
2024/03/20 05:09:19;;;;;;;8.98;5.47;;;8.60;99.90;;;;;;4994697;28;20034;-81
2024/03/20 05:11:45;;;;;;;9.77;5.82;;;8.50;99.90;;;;;;4993753;28;20034;-83
2024/03/20 05:14:11;;;;;;;11.70;5.68;;;8.60;99.90;;;;;;4993528;28;20027;-84
2024/03/20 05:16:36;;;;;;;10.63;5.60;;;8.50;99.90;;;;;;4994178;28;20419;-83
2024/03/20 05:19:02;;;;;;;10.27;6.05;;;8.50;99.90;;;;;;4993448;28;20120;-80
2024/03/20 05:21:27;;;;;;;11.73;6.15;;;8.50;99.90;;;;;;4995203;28;20056;-82
2024/03/20 05:23:53;;;;;;;11.23;6.95;;;8.60;99.90;;;;;;4978320;28;20029;-83
2024/03/20 05:26:19;;;;;;;11.95;6.50;;;8.60;99.90;;;;;;4994888;28;20356;-85
2024/03/20 05:28:44;;;;;;;10.77;6.50;;;8.70;99.90;;;;;;4977937;28;20502;-85
2024/03/20 05:31:27;;;;;;;15.15;6.35;;;8.70;99.90;;;;;;4994556;28;20076;-85
2024/03/20 05:33:53;;;;;;;10.23;5.43;;;8.70;99.90;;;;;;4977528;28;20030;-82
2024/03/20 05:36:18;;;;;;;9.48;5.47;;;8.60;99.90;;;;;;4976882;28;20450;-84
2024/03/20 05:38:44;;;;;;;9.45;5.13;;;8.50;99.90;;;;;;4995030;28;20046;-84
2024/03/20 05:41:10;;;;;;;11.80;4.75;;;8.40;99.90;;;;;;4994051;28;20057;-83
2024/03/20 05:43:35;;;;;;;8.30;4.90;;;8.40;99.90;;;;;;4977737;28;20379;-84
2024/03/20 05:46:01;;;;;;;10.45;5.50;;;8.40;99.90;;;;;;4977355;28;20093;-82
2024/03/20 05:48:26;;;;;;;8.80;4.85;;;8.30;99.90;;;;;;4981325;28;20027;-84
2024/03/20 05:50:52;;;;;;;12.27;5.35;;;8.30;99.90;;;;;;4998522;28;20030;-83
2024/03/20 05:53:18;;;;;;;8.95;5.00;;;8.30;99.90;;;;;;4981205;28;20476;-84
2024/03/20 05:55:44;;;;;;;7.75;4.70;;;8.20;99.90;;;;;;4981636;28;20121;-84
2024/03/20 05:58:10;;;;;;;8.23;4.72;;;8.20;99.90;;;;;;4997770;28;20066;-83
2024/03/20 06:00:35;;;;;;;6.72;4.38;;;8.20;99.90;;;;;;4998393;28;20033;-84
2024/03/20 06:03:01;;;;;;;8.73;5.05;;;8.20;99.90;;;;;;4981313;28;20368;-83
2024/03/20 06:05:27;;;;;;;7.88;5.00;;;8.20;99.90;;;;;;4980818;28;20110;-83
2024/03/20 06:07:55;;;;;;;10.02;5.47;;;8.30;99.90;;;;;;4981366;28;20034;-84
2024/03/20 06:10:21;;;;;;;9.43;4.80;;;8.30;99.90;;;;;;4980481;28;20022;-84
2024/03/20 06:12:47;;;;;;;10.73;6.18;;;8.40;99.90;;;;;;4997652;28;20105;-83
2024/03/20 06:15:13;;;;;;;10.88;5.63;;;8.40;99.90;;;;;;4980326;28;20031;-84
2024/03/20 06:17:39;;;;;;;11.63;5.80;;;8.30;99.90;;;;;;4980777;28;20089;-83
2024/03/20 06:20:06;;;;;;;12.90;6.10;;;8.40;99.90;;;;;;4997409;28;20126;-84
2024/03/20 06:22:35;;;;;;;12.57;6.35;;;8.40;99.90;;;;;;4997886;28;20097;-84
2024/03/20 06:25:08;;;;;;;13.88;7.13;;;8.50;99.90;;;;;;4980274;28;20030;-84
2024/03/20 06:27:37;;;;;;;16.52;7.55;;;8.50;99.90;;;;;;4981056;28;20026;-83
2024/03/20 06:30:11;;;;;;;14.60;7.22;;;8.50;99.90;;;;;;4997229;28;20034;-84
2024/03/20 06:32:38;;;;;;;14.02;6.97;;;8.60;99.90;;;;;;4996906;28;20033;-85
2024/03/20 06:35:05;;;;;;;15.10;7.75;;;8.60;99.90;;;;;;4995803;28;20061;-81
2024/03/20 06:37:30;;;;;;;14.98;7.72;;;8.60;99.90;;;;;;4997365;28;20031;-83
2024/03/20 06:39:56;;;;;;;11.93;6.90;;;8.60;99.90;;;;;;4996158;28;20057;-84
2024/03/20 06:42:22;;;;;;;13.80;7.10;;;8.60;99.90;;;;;;4995999;28;20027;-83
2024/03/20 06:44:48;;;;;;;16.13;7.25;;;8.60;99.90;;;;;;4996862;28;20027;-83
2024/03/20 06:47:20;;;;;;;13.95;6.90;;;8.70;99.90;;;;;;4997287;28;20030;-82
2024/03/20 06:49:48;;;;;;;10.15;6.30;;;8.80;99.90;;;;;;4996304;28;20026;-83
2024/03/20 06:52:20;;;;;;;13.98;7.15;;;8.80;99.90;;;;;;4996987;28;20022;-83
2024/03/20 06:54:46;;;;;;;10.05;6.05;;;8.70;99.90;;;;;;4996330;28;20081;-83
2024/03/20 06:57:13;;;;;;;10.18;6.03;;;8.80;99.90;;;;;;4995456;28;20053;-83
2024/03/20 06:59:48;;;;;;;12.85;5.97;;;8.90;99.90;;;;;;4996246;28;20032;-82
2024/03/20 07:02:15;;;;;;;10.88;6.20;;;9.00;99.90;;;;;;4995428;28;20125;-82
2024/03/20 07:04:40;;;;;;;12.35;6.18;;;9.00;99.90;;;;;;4995970;28;20089;-83
2024/03/20 07:07:11;;;;;;;10.45;6.05;;;9.00;99.90;;;;;;4995956;28;20035;-81
2024/03/20 07:09:37;;;;;;;10.77;5.93;;;9.10;99.90;;;;;;4996039;28;20026;-83
2024/03/20 07:12:03;;;;;;;13.65;6.00;;;9.10;99.90;;;;;;4995725;28;20052;-83
2024/03/20 07:14:30;;;;;;;10.88;6.20;;;9.00;99.90;;;;;;4996477;28;20031;-83
2024/03/20 07:16:56;;;;;;;11.35;6.43;;;9.00;99.90;;;;;;4997277;28;20076;-83
2024/03/20 07:19:22;;;;;;;12.68;6.03;;;9.10;99.90;;;;;;4996260;28;20042;-83
2024/03/20 07:21:48;;;;;;;13.27;6.20;;;9.10;99.90;;;;;;4995773;28;20026;-83
2024/03/20 07:24:14;;;;;;;13.18;6.63;;;9.10;99.90;;;;;;4995248;28;20456;-83
2024/03/20 07:26:40;;;;;;;11.93;6.65;;;9.10;99.90;;;;;;4995846;28;20073;-82
2024/03/20 07:29:10;;;;;;;11.18;6.18;;;9.20;99.90;;;;;;4995594;28;20041;-83
2024/03/20 07:31:37;;;;;;;8.43;5.97;;;9.20;99.90;;;;;;4995837;28;20030;-84
2024/03/20 07:34:03;;;;;;;10.68;6.05;;;9.30;99.90;;;;;;4996431;28;20038;-83
2024/03/20 07:36:33;;;;;;;9.27;5.93;;;9.30;99.90;;;;;;4994885;28;20664;-84
2024/03/20 07:39:00;;;;;;;11.70;6.10;;;9.40;99.90;;;;;;4995562;28;20085;-84
2024/03/20 07:41:26;;;;;;;11.38;5.82;;;9.50;99.90;;;;;;4994493;28;20030;-83
2024/03/20 07:43:52;;;;;;;11.70;5.82;;;9.50;99.90;;;;;;4996347;28;20037;-83
2024/03/20 07:46:18;;;;;;;8.90;5.30;;;9.60;99.90;;;;;;4994656;28;20027;-83
2024/03/20 07:48:47;;;;;;;8.07;5.47;;;9.70;99.90;;;;;;4995302;28;20038;-83
2024/03/20 07:51:18;;;;;;;11.13;5.32;;;9.80;99.90;;;;;;4995536;28;20022;-84
2024/03/20 07:53:46;;;;;;;7.63;5.25;;;9.80;99.90;;;;;;4996400;28;20031;-84
2024/03/20 07:56:13;;;;;;;8.70;4.82;;;9.90;99.90;;;;;;4995088;28;20034;-84
2024/03/20 07:58:41;;;;;;;9.38;4.80;;;10.00;99.90;;;;;;4995052;28;20443;-85
2024/03/20 08:01:10;;;;;;;8.82;4.53;;;10.00;99.90;;;;;;4995332;28;20121;-85
2024/03/20 08:03:39;;;;;;;7.80;4.70;;;10.10;99.90;;;;;;4996054;28;20038;-85
2024/03/20 08:06:05;;;;;;;8.52;4.40;;;10.20;99.90;;;;;;4996022;28;20113;-85
2024/03/20 08:08:31;;;;;;;8.75;4.72;;;10.20;99.90;;;;;;4995704;28;20073;-85
2024/03/20 08:10:56;;;;;;;6.35;3.80;;;10.30;99.90;;;;;;4995316;28;20030;-85
2024/03/20 08:13:22;;;;;;;6.72;3.85;;;10.30;99.90;;;;;;4995280;28;20483;-86
2024/03/20 08:15:47;;;;;;;4.97;3.65;;;10.30;99.90;;;;;;4995278;28;20058;-86
2024/03/20 08:18:13;;;;;;;6.65;3.85;;;10.30;99.90;;;;;;4995331;28;20027;-84
2024/03/20 08:20:39;;;;;;;7.95;4.28;;;10.40;99.90;;;;;;4994722;28;20034;-85
2024/03/20 08:23:05;;;;;;;9.15;3.97;;;10.40;99.90;;;;;;4996087;28;20022;-85
2024/03/20 08:25:31;;;;;;;9.40;4.57;;;10.50;99.90;;;;;;4994476;28;20069;-85
2024/03/20 08:27:57;;;;;;;7.78;4.45;;;10.50;99.90;;;;;;4995036;28;20026;-85
2024/03/20 08:30:24;;;;;;;9.90;4.65;;;10.60;99.90;;;;;;4995352;28;20033;-86
2024/03/20 08:32:50;;;;;;;8.48;4.57;;;10.60;99.90;;;;;;4995745;28;20023;-85
2024/03/20 08:35:17;;;;;;;7.38;3.83;;;10.70;99.90;;;;;;4994722;28;20046;-85
2024/03/20 08:37:43;;;;;;;5.78;4.03;;;10.70;99.90;;;;;;4995553;28;20034;-86
2024/03/20 08:40:10;;;;;;;7.82;4.53;;;10.70;99.90;;;;;;4994710;28;20114;-85
2024/03/20 08:42:36;;;;;;;9.25;4.63;;;10.80;99.90;;;;;;4994352;28;20490;-86
2024/03/20 08:45:03;;;;;;;6.68;4.15;;;10.80;99.90;;;;;;4995691;28;20031;-86
2024/03/20 08:47:29;;;;;;;7.03;4.60;;;10.90;99.90;;;;;;4995311;28;20030;-85
2024/03/20 08:49:55;;;;;;;7.50;4.57;;;10.90;99.90;;;;;;4994589;28;20030;-85
2024/03/20 08:52:21;;;;;;;9.68;4.18;;;11.00;99.90;;;;;;4995046;28;20057;-85
2024/03/20 08:54:49;;;;;;;6.47;3.92;;;11.00;99.90;;;;;;4995242;28;20022;-85
2024/03/20 08:57:18;;;;;;;8.23;4.18;;;11.10;99.90;;;;;;4995250;28;20030;-84
2024/03/20 08:59:45;;;;;;;7.22;4.15;;;11.10;99.90;;;;;;4994049;28;20100;-85
2024/03/20 09:02:12;;;;;;;7.28;4.35;;;11.10;99.90;;;;;;4994158;28;20546;-85
2024/03/20 09:04:42;;;;;;;7.45;4.82;;;11.20;99.90;;;;;;4993966;28;20498;-85
2024/03/20 09:07:08;;;;;;;6.35;4.22;;;11.20;99.90;;;;;;4994143;28;20085;-86
2024/03/20 09:09:34;;;;;;;6.65;4.18;;;11.30;99.90;;;;;;4994638;28;20364;-85
2024/03/20 09:12:04;;;;;;;10.38;5.07;;;11.40;99.90;;;;;;4994645;28;20045;-85
2024/03/20 09:14:33;;;;;;;8.18;4.47;;;11.40;99.90;;;;;;4992946;28;20080;-85
2024/03/20 09:16:58;;;;;;;7.78;4.22;;;11.40;99.90;;;;;;4995185;28;20026;-85
2024/03/20 09:19:24;;;;;;;5.82;3.92;;;11.40;99.90;;;;;;4993318;28;20034;-87
2024/03/20 09:21:50;;;;;;;6.18;4.05;;;11.50;99.90;;;;;;4993634;28;20027;-86
2024/03/20 09:24:17;;;;;;;8.73;4.50;;;11.60;99.90;;;;;;4993373;28;20038;-86
2024/03/20 09:26:44;;;;;;;7.70;4.80;;;11.70;99.90;;;;;;4993562;28;20116;-86
2024/03/20 09:29:14;;;;;;;8.50;4.70;;;11.70;99.90;;;;;;4994907;28;20034;-86
2024/03/20 09:31:39;;;;;;;6.50;4.50;;;11.80;99.90;;;;;;4994242;28;20027;-86
2024/03/20 09:34:05;;;;;;;8.30;3.53;;;11.80;99.90;;;;;;4995039;28;20033;-85
2024/03/20 09:36:31;;;;;;;5.43;3.60;;;11.90;99.90;;;;;;4994512;28;20130;-86
2024/03/20 09:38:57;;;;;;;7.53;3.85;;;11.90;99.90;;;;;;4993355;28;20031;-85
2024/03/20 09:41:24;;;;;;;6.43;3.30;;;11.90;99.90;;;;;;4993667;28;20466;-85
2024/03/20 09:43:54;;;;;;;9.25;3.75;;;12.10;99.90;;;;;;4994572;28;20058;-87
2024/03/20 09:46:20;;;;;;;4.38;3.22;;;12.10;99.90;;;;;;4993260;28;20026;-86
2024/03/20 09:48:50;;;;;;;8.38;3.70;;;12.10;99.90;;;;;;4993605;28;20117;-88
2024/03/20 09:51:20;;;;;;;5.13;3.60;;;12.20;99.90;;;;;;4994369;28;20449;-86
2024/03/20 09:53:51;;;;;;;5.75;4.18;;;12.30;99.90;;;;;;4993586;28;20030;-86
2024/03/20 09:56:20;;;;;;;4.55;3.30;;;12.40;99.90;;;;;;4993400;28;20027;-85
2024/03/20 09:58:47;;;;;;;6.93;3.72;;;12.50;99.90;;;;;;4993306;28;20042;-86
2024/03/20 10:01:20;;;;;;;7.60;3.60;;;12.60;99.90;;;;;;4994612;28;20110;-86
2024/03/20 10:03:48;;;;;;;7.95;3.67;;;12.70;99.90;;;;;;4993383;28;20054;-86
2024/03/20 10:06:14;;;;;;;5.50;3.25;;;12.80;99.90;;;;;;4993314;28;20476;-85
2024/03/20 10:08:40;;;;;;;9.07;3.60;;;12.90;99.90;;;;;;4994131;28;20026;-86
2024/03/20 10:11:09;;;;;;;4.55;3.13;;;13.00;99.90;;;;;;4993141;28;20080;-85
2024/03/20 10:13:35;;;;;;;6.22;3.38;;;13.10;99.90;;;;;;4993498;28;20510;-86
2024/03/20 10:16:18;;;;;;;5.90;3.13;;;13.10;99.90;;;;;;4994278;28;20096;-84
2024/03/20 10:18:44;;;;;;;6.20;3.08;;;13.20;99.90;;;;;;4994464;28;20030;-86
2024/03/20 10:21:11;;;;;;;3.85;3.10;;;13.20;99.90;;;;;;4994128;28;20456;-86
2024/03/20 10:23:39;;;;;;;4.55;3.20;;;13.20;99.90;;;;;;4993219;28;20027;-86
2024/03/20 10:26:05;;;;;;;4.90;3.03;;;13.30;99.90;;;;;;4995841;28;20026;-85
2024/03/20 10:28:31;;;;;;;4.88;3.20;;;13.30;99.90;;;;;;4992934;28;20542;-85
2024/03/20 10:31:08;;;;;;;5.00;3.38;;;13.30;99.90;;;;;;4993442;28;20026;-85
2024/03/20 10:33:35;;;;;;;6.55;2.90;;;13.30;99.90;;;;;;4995705;28;20027;-85
2024/03/20 10:36:02;;;;;;;6.05;3.33;;;13.30;99.90;;;;;;4997530;28;20062;-85
2024/03/20 10:38:32;;;;;;;4.03;2.95;;;13.30;99.90;;;;;;4996409;28;20129;-85
2024/03/20 10:40:59;;;;;;;4.63;3.60;;;13.30;99.90;;;;;;4996612;28;20122;-85
2024/03/20 10:43:26;;;;;;;5.65;3.25;;;13.40;99.90;;;;;;4995809;28;20030;-85
2024/03/20 10:45:53;;;;;;;6.13;3.75;;;13.40;99.90;;;;;;4997386;28;20517;-85
2024/03/20 10:48:23;;;;;;;6.72;3.70;;;13.40;99.90;;;;;;4996110;28;20034;-80
2024/03/20 10:50:53;;;;;;;6.65;3.60;;;13.50;99.90;;;;;;4997343;28;20439;-85
2024/03/20 10:53:21;;;;;;;5.20;3.50;;;13.50;99.90;;;;;;4996897;28;20037;-82
2024/03/20 10:55:50;;;;;;;5.00;3.13;;;13.60;99.90;;;;;;4997321;28;20022;-86
2024/03/20 10:58:18;;;;;;;6.90;3.28;;;13.60;99.90;;;;;;4997337;28;20391;-85
2024/03/20 11:00:50;;;;;;;4.18;2.92;;;13.70;99.90;;;;;;4997187;28;20038;-86
2024/03/20 11:03:39;;;;;;;4.50;2.63;;;13.80;99.90;;;;;;4995973;28;20052;-85
2024/03/20 11:09:06;;;;;;;4.95;2.45;;;13.90;99.90;;;;;;4996946;28;20034;-85
2024/03/20 11:11:32;;;;;;;5.85;2.17;;;13.90;99.90;;;;;;4995719;28;20065;-85
2024/03/20 11:14:05;;;;;;;3.63;2.25;;;13.90;99.90;;;;;;4995987;28;20550;-86
2024/03/20 11:16:31;;;;;;;6.53;2.90;;;13.90;99.90;;;;;;4995573;28;20027;-86
2024/03/20 11:18:58;;;;;;;4.72;2.75;;;14.00;99.90;;;;;;4995993;28;20030;-85
2024/03/20 11:21:24;;;;;;;4.47;2.42;;;14.00;99.90;;;;;;4995732;28;20027;-87
2024/03/20 11:23:52;;;;;;;3.20;2.10;;;14.10;99.90;;;;;;4995800;28;20169;-85
2024/03/20 11:26:19;;;;;;;5.15;2.45;;;14.20;99.90;;;;;;4995849;28;20062;-85
2024/03/20 11:28:47;;;;;;;6.32;2.50;;;14.20;99.90;;;;;;4995279;28;20121;-87
2024/03/20 11:31:20;;;;;;;5.05;2.20;;;14.20;99.90;;;;;;4995983;28;20368;-86
2024/03/20 11:33:46;;;;;;;3.67;2.10;;;14.30;99.90;;;;;;4995603;28;20030;-85
2024/03/20 11:36:16;;;;;;;3.08;2.15;;;14.40;99.90;;;;;;4996935;28;20109;-84
2024/03/20 11:38:41;;;;;;;4.25;1.95;;;14.50;99.90;;;;;;4995243;28;20394;-85
2024/03/20 11:41:12;;;;;;;2.88;1.90;;;14.60;99.90;;;;;;4996402;28;20515;-84
2024/03/20 11:43:44;;;;;;;2.22;1.95;;;14.70;99.90;;;;;;4994820;28;20423;-85
2024/03/20 11:46:13;;;;;;;;;;;14.80;99.90;;;;;;4995396;28;20130;-85
2024/03/20 11:48:39;;;;;;;4.03;1.90;;;15.00;99.90;;;;;;4994879;28;19910;-84
2024/03/20 11:51:15;;;;;;;5.30;2.55;;;15.00;99.90;;;;;;4996593;28;20023;-84
2024/03/20 11:53:42;;;;;;;3.33;1.90;;;15.10;99.90;;;;;;4995892;28;20082;-83
2024/03/20 11:56:09;;;;;;;2.45;1.77;;;15.20;99.90;;;;;;4995207;28;20037;-84
2024/03/20 11:58:35;;;;;;;3.70;2.00;;;15.30;99.90;;;;;;4994415;28;20411;-84
2024/03/20 12:01:08;;;;;;;2.42;1.90;;;15.30;99.90;;;;;;4995175;28;20178;-84
2024/03/20 12:03:37;;;;;;;2.17;1.60;;;15.40;99.90;;;;;;4994661;28;20030;-83
2024/03/20 12:06:26;;;;;;;5.18;2.10;;;15.60;99.90;;;;;;4994905;28;20030;-83
2024/03/20 12:08:54;;;;;;;4.38;1.83;;;15.60;99.90;;;;;;4995008;28;20070;-83
2024/03/20 12:11:25;;;;;;;3.25;1.67;;;15.80;99.90;;;;;;4995670;28;20018;-84
2024/03/20 12:13:52;;;;;;;7.63;2.00;;;15.80;99.90;;;;;;4995777;28;20038;-84
2024/03/20 12:16:22;;;;;;;4.90;2.03;;;15.80;99.90;;;;;;4994826;28;20030;-84
2024/03/20 12:18:51;;;;;;;3.25;1.70;;;16.00;99.90;;;;;;4993865;28;20459;-84
2024/03/20 12:21:19;;;;;;;3.50;1.80;;;16.20;99.90;;;;;;4994937;28;20031;-84
2024/03/20 12:23:46;;;;;;;4.18;1.88;;;16.30;99.90;;;;;;4993948;28;20040;-85
2024/03/20 12:26:12;;;;;;;4.93;1.88;;;16.50;99.90;;;;;;4995718;28;20097;-85
2024/03/20 12:28:39;;;;;;;2.88;1.65;;;16.70;99.90;;;;;;4994182;28;20037;-85
2024/03/20 12:31:09;;;;;;;4.18;1.73;;;16.80;99.90;;;;;;4994333;28;20058;-84
2024/03/20 12:33:35;;;;;;;4.43;2.00;;;17.00;99.90;;;;;;4994606;28;20022;-85
2024/03/20 12:36:01;;;;;;;5.15;2.10;;;17.10;99.90;;;;;;4994063;28;20089;-85
2024/03/20 12:38:27;;;;;;;4.40;1.75;;;17.20;99.90;;;;;;4993749;28;20081;-84
2024/03/20 12:40:52;;;;;;;1.63;1.40;;;17.40;99.90;;;;;;4995383;28;20070;-85
2024/03/20 12:43:18;;;;;;;2.67;1.48;;;17.60;99.90;;;;;;4993997;28;20080;-85
2024/03/20 12:45:48;;;;;;;3.90;1.67;;;17.70;99.90;;;;;;4994784;28;20027;-85
2024/03/20 12:48:13;;;;;;;2.58;1.52;;;18.00;99.90;;;;;;4994462;28;20049;-85